Sanderson, Florida
Current Conditions -  °F | °C
As of 2:15 PM on Friday 24 Oct 2014 (Local Time) from KLCQ Reporting Station
Clear Clear  
Wind Chill: 72°   Ceiling: Unl
Heat Index: 72°   Visibility: 10mi
Dew Point: 50°   Wind: 3mph
Humidity: 46%   Direction: 100°E
Pressure: 29.99"   Gusts: NA
Location:  30.25°N, 82.27°W
Report Text: KLCQ 241815Z AUTO 10003KT 10SM CLR 22/10 A2999 RMK AO2
Loading
Personal Weather Stations






























Interactive Weather Map
Tropical Storm Tracking
New forecast layout! Learn more

10-Day Weather Forecast

Advertisements
Track Severe Weather on mobile